This is the latest recevied weather packets stored in our database for station/object SP6KBU-12. If no packets are shown the sender has not sent any weather packets the latest 10 day(s).
| Time | Temp. | Humidity | Pressure | Rain* | Wind** | Luminosity | Snow |
|---|---|---|---|---|---|---|---|
| 1788555060 | 15.56° C | 72% | 1014.6 hPa | - | - | - | - |
| 1788554159 | 15.56° C | 73% | 1014.5 hPa | - | - | - | - |
| 1788553259 | 16.11° C | 72% | 1015 hPa | - | - | - | - |
| 1788552359 | 16.11° C | 71% | 1015.1 hPa | - | - | - | - |
| 1788551459 | 16.67° C | 71% | 1014.7 hPa | - | - | - | - |
| 1788550559 | 16.67° C | 72% | 1014.7 hPa | - | - | - | - |
| 1788549658 | 16.67° C | 72% | 1014.8 hPa | - | - | - | - |
| 1788548758 | 16.67° C | 73% | 1014.3 hPa | - | - | - | - |
| 1788547858 | 16.67° C | 73% | 1013.9 hPa | - | - | - | - |
| 1788546958 | 17.78° C | 71% | 1013.7 hPa | - | - | - | - |
| 1788546058 | 21.67° C | 61% | 1013.2 hPa | - | - | - | - |
| 1788545158 | 22.22° C | 56% | 1011.3 hPa | - | - | - | - |
| 1788544258 | 22.22° C | 56% | 1011.1 hPa | - | - | - | - |
| 1788543358 | 22.22° C | 56% | 1011 hPa | - | - | - | - |
| 1788542458 | 22.22° C | 56% | 1011.1 hPa | - | - | - | - |
| 1788541558 | 22.78° C | 55% | 1011.8 hPa | - | - | - | - |
| 1788540658 | 22.78° C | 56% | 1011.8 hPa | - | - | - | - |
| 1788539778 | 22.78° C | 56% | 1011.8 hPa | - | - | - | - |
| 1788538857 | 22.78° C | 57% | 1011.8 hPa | - | - | - | - |
| 1788537957 | 22.78° C | 56% | 1011.9 hPa | - | - | - | - |
| 1788537057 | 22.78° C | 57% | 1012 hPa | - | - | - | - |
| 1788536157 | 22.78° C | 56% | 1012.2 hPa | - | - | - | - |
| 1788535257 | 22.78° C | 56% | 1012.5 hPa | - | - | - | - |
| 1788534357 | 23.89° C | 53% | 1012.6 hPa | - | - | - | - |
| 1788533457 | 24.44° C | 53% | 1012.7 hPa | - | - | - | - |
* Rain since midnight (hover to see other rain measurements)
** Current wind speed in m/s (hover to see current wind gust speed)